logo
Search for airport 
image banner adimage banner adimage banner ad
image banner ad

MMPB - Puebla Aeropuerto Internacional Hermanos Serdan

Located in Puebla, Mexico

ICAO - MMPB, IATA - PBC

Data provided by Airmate  

General information

Coordinates: N19°9'29" W98°22'17"
Elevation is 7361 feet MSL.
 
Rated:
View ratings:
[VIEW]
View others Airports in Puebla

Operational data

Special qualification required
Current time UTC:
Current local time:
Weather
METAR: MMPB 251540Z 14002KT 9SM SCT020 19/12 A3047 RMK 8/500 HZY
TAF: TAF MMPB 251554Z 2518/2618 19010KT P6SM SCT020 BKN090 BKN200 BECMG 2521/2522 P6SM VC RA BKN020CB TEMPO 2522/2602 4SM TSRA FM260300 00000KT 6SM HZ SCT015 BKN080 BKN200 BECMG 2609/2610 4SM BR HZ TEMPO 2610/2614 2SM BR BKN010 FM261500 16005KT 5SM HZ SCT020 BKN200
View NOTAMs / SUP AIP / TFR affecting this airport [VIEW]
Communications frequencies: [VIEW]

Runways:

RWY identifierQFULength (ft)Width (ft)SurfaceLDA (ft)
17178°11811148ASP
35358°11811148ASP

Airport contact information

Address: Puebla Mexico

Satellite view of MMPB